createdAt,value
2022-12-11T00:00:53.579Z,98583.00
2022-12-11T00:03:20.452Z,98597.72
2022-12-11T00:05:47.285Z,98600.31
2022-12-11T00:08:14.205Z,98603.78
2022-12-11T00:10:47.440Z,98608.09
2022-12-11T00:13:14.215Z,98599.44
2022-12-11T00:15:40.934Z,98598.59
2022-12-11T00:18:09.366Z,98592.53
2022-12-11T00:20:38.458Z,98594.28
2022-12-11T00:23:06.138Z,98615.88
2022-12-11T00:25:32.980Z,98617.56
2022-12-11T00:27:59.801Z,98596.84
2022-12-11T00:30:26.552Z,98608.94
2022-12-11T00:32:53.290Z,98606.37
2022-12-11T00:35:20.085Z,98615.88
2022-12-11T00:37:46.897Z,98603.75
2022-12-11T00:40:13.794Z,98608.94
2022-12-11T00:42:40.555Z,98612.38
2022-12-11T00:45:07.745Z,98610.69
2022-12-11T00:47:34.643Z,98619.31
2022-12-11T00:50:01.390Z,98625.34
2022-12-11T00:52:29.847Z,98633.12
2022-12-11T00:54:56.561Z,98638.28
2022-12-11T00:57:23.554Z,98637.44
2022-12-11T00:59:50.547Z,98645.25
2022-12-11T01:02:17.362Z,98644.37
2022-12-11T01:04:44.169Z,98672.88
2022-12-11T01:07:11.009Z,98676.34
2022-12-11T01:09:56.374Z,98674.59
2022-12-11T01:12:26.555Z,98663.34
2022-12-11T01:14:53.472Z,98672.00
2022-12-11T01:17:20.252Z,98663.38
2022-12-11T01:19:47.034Z,98682.34
2022-12-11T01:22:13.708Z,98696.19
2022-12-11T01:24:44.802Z,98697.91
2022-12-11T01:27:11.633Z,98700.50
2022-12-11T01:29:38.353Z,98703.09
2022-12-11T01:32:05.360Z,98711.72
2022-12-11T01:34:32.537Z,98714.31
2022-12-11T01:37:02.979Z,98711.72
2022-12-11T01:39:29.720Z,98722.13
2022-12-11T01:41:59.716Z,98729.91
2022-12-11T01:44:27.057Z,98718.66
2022-12-11T01:46:54.179Z,98722.94
2022-12-11T01:49:23.132Z,98727.28
2022-12-11T01:51:53.478Z,98722.13
2022-12-11T01:54:22.052Z,98722.09
2022-12-11T01:56:51.850Z,98715.19
2022-12-11T01:59:20.285Z,98713.44
2022-12-11T02:02:10.420Z,98693.56
2022-12-11T02:04:57.826Z,98704.84
2022-12-11T02:07:48.737Z,98682.34
2022-12-11T02:10:55.846Z,98697.03
2022-12-11T02:13:25.254Z,98686.69
2022-12-11T02:16:13.333Z,98690.13
2022-12-11T02:18:56.970Z,98675.47
2022-12-11T02:21:30.102Z,98676.31
2022-12-11T02:24:15.582Z,98679.78
2022-12-11T02:26:42.245Z,98674.56
2022-12-11T02:29:12.238Z,98671.12
2022-12-11T02:31:41.839Z,98684.09
2022-12-11T02:34:23.669Z,98664.22
2022-12-11T02:36:57.236Z,98661.66
2022-12-11T02:39:25.910Z,98663.34
2022-12-11T02:41:53.533Z,98663.34
2022-12-11T02:44:23.606Z,98666.81
2022-12-11T02:46:51.224Z,98673.72
2022-12-11T02:49:19.122Z,98669.38
2022-12-11T02:51:46.016Z,98673.72
2022-12-11T02:54:17.324Z,98680.63
2022-12-11T02:56:47.323Z,98676.31
2022-12-11T02:59:20.765Z,98660.75
2022-12-11T03:01:48.355Z,98674.59
2022-12-11T03:04:15.168Z,98686.69
2022-12-11T03:06:44.794Z,98689.28
2022-12-11T03:09:11.521Z,98691.00
2022-12-11T03:11:38.332Z,98691.84
2022-12-11T03:14:05.607Z,98690.16
2022-12-11T03:16:39.292Z,98697.03
2022-12-11T03:19:21.499Z,98669.41
2022-12-11T03:21:56.900Z,98667.66
2022-12-11T03:24:35.844Z,98667.69
2022-12-11T03:27:09.611Z,98670.25
2022-12-11T03:29:40.887Z,98673.72
2022-12-11T03:32:14.133Z,98665.94
2022-12-11T03:34:40.985Z,98641.75
2022-12-11T03:37:11.274Z,98632.28
2022-12-11T03:39:39.457Z,98657.31
2022-12-11T03:42:08.414Z,98659.03
2022-12-11T03:44:36.330Z,98663.38
2022-12-11T03:47:07.451Z,98655.56
2022-12-11T03:49:40.047Z,98674.59
2022-12-11T03:52:07.426Z,98684.09
2022-12-11T03:54:35.223Z,98684.94
2022-12-11T03:57:04.378Z,98677.16
2022-12-11T03:59:31.274Z,98676.31
2022-12-11T04:01:58.266Z,98672.88
2022-12-11T04:04:25.236Z,98659.03
2022-12-11T04:06:54.588Z,98659.91
2022-12-11T04:09:24.056Z,98683.22
2022-12-11T04:11:50.795Z,98663.34
2022-12-11T04:14:35.950Z,98673.75
2022-12-11T04:17:02.749Z,98685.81
2022-12-11T04:19:48.165Z,98674.59
2022-12-11T04:22:34.896Z,98689.28
2022-12-11T04:25:03.000Z,98706.56
2022-12-11T04:27:49.845Z,98690.97
2022-12-11T04:30:20.531Z,98704.84
2022-12-11T04:32:47.438Z,98704.81
2022-12-11T04:35:14.687Z,98704.81
2022-12-11T04:37:41.721Z,98716.03
2022-12-11T04:40:10.782Z,98704.81
2022-12-11T04:42:37.727Z,98704.81
2022-12-11T04:45:05.444Z,98703.09
2022-12-11T04:47:32.468Z,98719.50
2022-12-11T04:49:59.240Z,98729.91
2022-12-11T04:52:26.194Z,98715.19
2022-12-11T04:55:13.429Z,98752.34
2022-12-11T04:58:02.650Z,98762.62
2022-12-11T05:00:30.884Z,98775.66
2022-12-11T05:02:57.703Z,98764.41
2022-12-11T05:05:26.366Z,98765.31
2022-12-11T05:07:55.147Z,98792.94
2022-12-11T05:10:21.847Z,98786.06
2022-12-11T05:12:48.589Z,98790.34
2022-12-11T05:15:15.538Z,98781.72
2022-12-11T05:17:42.320Z,98800.75
2022-12-11T05:20:10.056Z,98803.34
2022-12-11T05:22:37.478Z,98805.94
2022-12-11T05:25:04.475Z,98807.66
2022-12-11T05:27:31.198Z,98810.25
2022-12-11T05:29:59.719Z,98815.41
2022-12-11T05:32:27.143Z,98806.81
2022-12-11T05:34:53.920Z,98811.09
2022-12-11T05:37:22.008Z,98817.13
2022-12-11T05:39:48.990Z,98822.28
2022-12-11T05:42:15.654Z,98830.94
2022-12-11T05:44:42.385Z,98828.34
2022-12-11T05:47:09.237Z,98843.09
2022-12-11T05:49:36.020Z,98831.88
2022-12-11T05:52:03.161Z,98825.75
2022-12-11T05:54:31.609Z,98832.66
2022-12-11T05:56:59.996Z,98834.41
2022-12-11T05:59:26.750Z,98836.09
2022-12-11T06:01:53.758Z,98834.34
2022-12-11T06:04:20.817Z,98850.00
2022-12-11T06:06:54.917Z,98838.69
2022-12-11T06:09:21.600Z,98838.69
2022-12-11T06:11:48.429Z,98840.47
2022-12-11T06:14:15.227Z,98828.38
2022-12-11T06:16:42.077Z,98847.41
2022-12-11T06:19:13.599Z,98843.88
2022-12-11T06:21:42.328Z,98849.09
2022-12-11T06:24:10.727Z,98856.97
2022-12-11T06:26:37.425Z,98853.50
2022-12-11T06:29:07.643Z,98861.97
2022-12-11T06:31:37.739Z,98868.13
2022-12-11T06:34:04.632Z,98858.56
2022-12-11T06:36:31.448Z,98849.09
2022-12-11T06:38:58.277Z,98860.34
2022-12-11T06:41:25.424Z,98859.50
2022-12-11T06:43:52.252Z,98883.66
2022-12-11T06:46:20.186Z,98888.03
2022-12-11T06:48:47.765Z,98868.94
2022-12-11T06:51:16.405Z,98868.91
2022-12-11T06:53:44.274Z,98864.66
2022-12-11T06:56:15.372Z,98881.91
2022-12-11T06:58:42.680Z,98875.88
2022-12-11T07:01:20.220Z,98878.38
2022-12-11T07:03:47.197Z,98894.00
2022-12-11T07:06:14.218Z,98900.06
2022-12-11T07:08:41.117Z,98894.94
2022-12-11T07:11:13.816Z,98905.31
2022-12-11T07:13:42.390Z,98911.34
2022-12-11T07:16:13.584Z,98925.06
2022-12-11T07:18:42.512Z,98926.87
2022-12-11T07:21:12.192Z,98934.66
2022-12-11T07:23:39.478Z,98947.59
2022-12-11T07:26:12.094Z,98958.66
2022-12-11T07:28:59.486Z,98949.09
2022-12-11T07:31:27.854Z,98955.44
2022-12-11T07:34:06.787Z,98962.19
2022-12-11T07:36:41.453Z,98968.03
2022-12-11T07:39:28.297Z,98962.19
2022-12-11T07:42:04.434Z,98937.94
2022-12-11T07:44:31.478Z,98954.28
2022-12-11T07:47:08.643Z,98946.47
2022-12-11T07:49:55.606Z,98948.38
2022-12-11T07:52:27.518Z,98940.56
2022-12-11T07:55:12.788Z,98944.88
2022-12-11T07:57:59.613Z,98921.59
2022-12-11T08:00:29.108Z,98918.97
2022-12-11T08:03:15.877Z,98944.94
2022-12-11T08:05:47.227Z,98934.66
2022-12-11T08:08:16.561Z,98934.69
2022-12-11T08:10:45.111Z,98935.59
2022-12-11T08:13:12.500Z,98945.00
2022-12-11T08:15:39.314Z,98939.00
2022-12-11T08:18:08.595Z,98962.22
2022-12-11T08:20:37.945Z,98948.44
2022-12-11T08:23:05.688Z,98957.97
2022-12-11T08:25:33.008Z,98956.22
2022-12-11T08:28:03.403Z,98960.47
2022-12-11T08:30:40.890Z,98971.81
2022-12-11T08:33:27.644Z,98970.13
2022-12-11T08:36:04.219Z,98942.53
2022-12-11T08:38:31.521Z,98971.78
2022-12-11T08:40:58.313Z,98978.78
2022-12-11T08:43:28.208Z,98965.84
2022-12-11T08:45:55.112Z,98983.97
2022-12-11T08:48:21.894Z,98973.47
2022-12-11T08:50:49.276Z,98983.03
2022-12-11T08:53:17.201Z,99004.72
2022-12-11T08:55:44.098Z,99012.44
2022-12-11T08:58:13.100Z,98992.53
2022-12-11T09:00:40.595Z,99002.06
2022-12-11T09:03:12.511Z,99005.59
2022-12-11T09:05:40.519Z,98997.81
2022-12-11T09:08:08.584Z,99004.75
2022-12-11T09:10:44.811Z,98989.13
2022-12-11T09:13:11.655Z,98987.50
2022-12-11T09:15:41.674Z,98991.03
2022-12-11T09:18:28.455Z,98994.50
2022-12-11T09:21:16.307Z,98998.00
2022-12-11T09:23:45.705Z,99009.22
2022-12-11T09:26:13.865Z,99010.13
2022-12-11T09:28:45.789Z,99007.53
2022-12-11T09:31:18.071Z,99012.69
2022-12-11T09:33:45.704Z,99004.06
2022-12-11T09:36:12.594Z,99022.12
2022-12-11T09:38:39.880Z,99008.34
2022-12-11T09:41:38.966Z,99013.56
2022-12-11T09:44:15.147Z,99006.66
2022-12-11T09:46:42.752Z,99007.50
2022-12-11T09:49:20.861Z,98996.25
2022-12-11T09:51:51.625Z,99014.41
2022-12-11T09:54:18.646Z,99007.53
2022-12-11T09:56:57.692Z,99008.34
2022-12-11T09:59:31.812Z,99007.50
2022-12-11T10:02:04.743Z,99008.28
2022-12-11T10:04:37.492Z,98997.94
2022-12-11T10:07:18.968Z,99009.16
2022-12-11T10:09:51.954Z,99003.13
2022-12-11T10:12:41.552Z,98989.25
2022-12-11T10:15:21.688Z,98990.00
2022-12-11T10:17:48.541Z,99000.50
2022-12-11T10:20:22.549Z,98989.97
2022-12-11T10:22:51.152Z,98990.03
2022-12-11T10:25:23.105Z,99004.50
2022-12-11T10:27:51.138Z,98997.66
2022-12-11T10:30:22.853Z,99007.47
2022-12-11T10:32:55.393Z,99011.66
2022-12-11T10:35:34.113Z,99024.56
2022-12-11T10:38:13.262Z,99035.34
2022-12-11T10:40:43.281Z,99028.72
2022-12-11T10:45:58.378Z,99032.37
2022-12-11T10:48:26.097Z,99028.44
2022-12-11T10:51:12.904Z,99027.31
2022-12-11T10:54:22.648Z,99032.37
2022-12-11T10:56:50.009Z,99026.84
2022-12-11T10:59:24.221Z,99026.16
2022-12-11T11:02:22.984Z,99022.94
2022-12-11T11:05:17.651Z,99019.94
2022-12-11T11:08:05.001Z,99022.38
2022-12-11T11:10:31.975Z,99002.72
2022-12-11T11:13:03.657Z,99001.34
2022-12-11T11:15:31.230Z,99000.38
2022-12-11T11:18:26.877Z,99013.09
2022-12-11T11:20:59.109Z,99019.72
2022-12-11T11:23:26.588Z,99025.94
2022-12-11T11:25:54.923Z,99038.00
2022-12-11T11:28:27.423Z,99036.66
2022-12-11T11:30:56.937Z,99033.66
2022-12-11T11:33:24.359Z,99029.22
2022-12-11T11:36:20.682Z,99023.13
2022-12-11T11:39:19.272Z,99042.81
2022-12-11T11:41:51.120Z,99043.56
2022-12-11T11:44:22.743Z,99052.97
2022-12-11T11:46:54.240Z,99060.12
2022-12-11T11:50:03.709Z,99063.78
2022-12-11T11:52:56.340Z,99077.53
2022-12-11T11:55:42.649Z,99061.13
2022-12-11T11:58:15.228Z,99065.47
2022-12-11T12:00:42.261Z,99064.66
2022-12-11T12:03:11.046Z,99070.69
2022-12-11T12:05:47.102Z,99070.66
2022-12-11T12:08:23.059Z,99062.06
2022-12-11T12:11:03.745Z,99059.41
2022-12-11T12:13:49.423Z,99051.47
2022-12-11T12:16:51.539Z,99057.53
2022-12-11T12:19:09.145Z,99056.81
2022-12-11T12:21:37.080Z,99053.31
2022-12-11T12:24:19.088Z,99057.69
2022-12-11T12:26:54.892Z,99042.09
2022-12-11T12:29:36.891Z,99058.53
2022-12-11T12:32:03.702Z,99046.28
2022-12-11T12:34:51.681Z,99053.19
2022-12-11T12:37:30.435Z,99048.78
2022-12-11T12:40:04.572Z,99067.78
2022-12-11T12:42:43.484Z,99049.69
2022-12-11T12:45:13.502Z,99060.31
2022-12-11T12:47:42.445Z,99075.06
2022-12-11T12:50:21.132Z,99082.88
2022-12-11T12:52:48.936Z,99086.31
2022-12-11T12:55:22.880Z,99086.28
2022-12-11T12:57:49.798Z,99088.94
2022-12-11T13:00:30.646Z,99084.59
2022-12-11T13:02:58.544Z,99087.19
2022-12-11T13:05:28.168Z,99103.66
2022-12-11T13:07:57.642Z,99107.13
2022-12-11T13:10:35.581Z,99097.59
2022-12-11T13:13:03.721Z,99094.87
2022-12-11T13:15:33.168Z,99093.25
2022-12-11T13:18:00.988Z,99084.53
2022-12-11T13:20:29.195Z,99095.81
2022-12-11T13:23:07.800Z,99097.59
2022-12-11T13:25:46.908Z,99089.81
2022-12-11T13:28:22.687Z,99089.78
2022-12-11T13:31:04.215Z,99095.81
2022-12-11T13:33:31.879Z,99105.38
2022-12-11T13:36:16.768Z,99104.50
2022-12-11T13:38:57.765Z,99109.72
2022-12-11T13:41:25.010Z,99108.00
2022-12-11T13:43:52.601Z,99112.31
2022-12-11T13:46:28.258Z,99111.44
2022-12-11T13:49:01.561Z,99119.25
2022-12-11T13:51:31.683Z,99129.63
2022-12-11T13:54:18.475Z,99134.00
2022-12-11T13:56:55.125Z,99150.38
2022-12-11T13:59:37.467Z,99146.94
2022-12-11T14:02:13.595Z,99148.66
2022-12-11T14:04:40.546Z,99159.91
2022-12-11T14:07:08.704Z,99158.16
2022-12-11T14:09:37.992Z,99169.44
2022-12-11T14:12:04.829Z,99176.28
2022-12-11T14:14:31.549Z,99169.47
2022-12-11T14:16:58.493Z,99171.13
2022-12-11T14:19:25.558Z,99166.88
2022-12-11T14:21:56.881Z,99178.84
2022-12-11T14:24:24.730Z,99181.38
2022-12-11T14:26:54.605Z,99174.47
2022-12-11T14:29:30.024Z,99182.22
2022-12-11T14:31:59.822Z,99177.87
2022-12-11T14:34:30.424Z,99186.56
2022-12-11T14:36:58.217Z,99191.75
2022-12-11T14:39:29.184Z,99201.16
2022-12-11T14:42:13.613Z,99204.62
2022-12-11T14:44:55.527Z,99215.81
2022-12-11T14:47:24.761Z,99222.63
2022-12-11T14:50:15.887Z,99218.53
2022-12-11T14:52:49.853Z,99243.50
2022-12-11T14:55:29.397Z,99229.75
2022-12-11T14:58:02.002Z,99234.66
2022-12-11T15:00:30.498Z,99225.03
2022-12-11T15:03:04.985Z,99245.50
2022-12-11T15:05:38.832Z,99242.44
2022-12-11T15:08:17.479Z,99250.31
2022-12-11T15:11:00.287Z,99261.56
2022-12-11T15:13:27.079Z,99260.66
2022-12-11T15:15:55.606Z,99260.59
2022-12-11T15:18:24.666Z,99250.12
2022-12-11T15:20:54.549Z,99256.06
2022-12-11T15:23:21.491Z,99269.94
2022-12-11T15:25:56.430Z,99259.59
2022-12-11T15:28:30.222Z,99270.03
2022-12-11T15:31:04.471Z,99257.91
2022-12-11T15:33:40.721Z,99258.56
2022-12-11T15:36:21.772Z,99257.62
2022-12-11T15:38:52.518Z,99259.38
2022-12-11T15:41:21.706Z,99240.19
2022-12-11T15:43:51.791Z,99236.91
2022-12-11T15:46:22.318Z,99228.22
2022-12-11T15:48:53.169Z,99211.38
2022-12-11T15:51:20.007Z,99215.91
2022-12-11T15:53:46.700Z,99210.47
2022-12-11T15:56:16.263Z,99225.53
2022-12-11T15:58:44.878Z,99218.53
2022-12-11T16:01:12.947Z,99214.72
2022-12-11T16:03:40.784Z,99203.69
2022-12-11T16:06:10.277Z,99216.56
2022-12-11T16:08:38.187Z,99207.13
2022-12-11T16:11:07.015Z,99232.94
2022-12-11T16:13:33.857Z,99237.56
2022-12-11T16:16:00.620Z,99228.12
2022-12-11T16:18:29.059Z,99229.13
2022-12-11T16:20:56.245Z,99236.00
2022-12-11T16:23:22.977Z,99237.44
2022-12-11T16:25:50.030Z,99231.50
2022-12-11T16:28:20.912Z,99233.97
2022-12-11T16:30:47.822Z,99229.91
2022-12-11T16:33:14.810Z,99235.28
2022-12-11T16:35:45.428Z,99222.97
2022-12-11T16:38:12.265Z,99224.81
2022-12-11T16:40:39.236Z,99222.72
2022-12-11T16:43:06.239Z,99216.72
2022-12-11T16:45:33.024Z,99201.09
2022-12-11T16:48:04.463Z,99219.31
2022-12-11T16:50:34.872Z,99215.59
2022-12-11T16:53:22.075Z,99228.41
2022-12-11T16:55:49.349Z,99233.53
2022-12-11T16:58:21.908Z,99227.81
2022-12-11T17:00:49.948Z,99236.50
2022-12-11T17:03:19.391Z,99246.03
2022-12-11T17:05:57.318Z,99252.31
2022-12-11T17:08:33.305Z,99245.28
2022-12-11T17:11:03.648Z,99240.16
2022-12-11T17:13:36.269Z,99249.16
2022-12-11T17:16:11.113Z,99245.38
2022-12-11T17:18:38.879Z,99246.22
2022-12-11T17:21:07.162Z,99252.19
2022-12-11T17:23:34.428Z,99263.50
2022-12-11T17:26:02.851Z,99255.81
2022-12-11T17:28:29.814Z,99255.50
2022-12-11T17:30:59.774Z,99258.72
2022-12-11T17:33:29.819Z,99269.37
2022-12-11T17:35:59.815Z,99266.53
2022-12-11T17:38:28.269Z,99278.97
2022-12-11T17:40:59.951Z,99283.34
2022-12-11T17:43:26.745Z,99289.34
2022-12-11T17:45:55.927Z,99292.87
2022-12-11T17:48:22.989Z,99304.94
2022-12-11T17:50:50.384Z,99299.06
2022-12-11T17:53:25.199Z,99299.84
2022-12-11T17:55:52.284Z,99301.13
2022-12-11T17:58:20.702Z,99291.75
2022-12-11T18:00:49.362Z,99300.13
2022-12-11T18:03:19.354Z,99295.62
2022-12-11T18:05:47.580Z,99296.97
2022-12-11T18:08:15.434Z,99295.56
2022-12-11T18:10:43.034Z,99311.09
2022-12-11T18:13:30.022Z,99318.69
2022-12-11T18:16:18.678Z,99310.31
2022-12-11T18:18:47.461Z,99298.94
2022-12-11T18:21:35.569Z,99310.94
2022-12-11T18:24:12.086Z,99314.00
2022-12-11T18:26:59.616Z,99322.16
2022-12-11T18:29:27.229Z,99326.94
2022-12-11T18:31:55.409Z,99332.25
2022-12-11T18:34:22.284Z,99320.19
2022-12-11T18:37:09.253Z,99323.50
2022-12-11T18:39:45.720Z,99321.09
2022-12-11T18:42:33.758Z,99330.63
2022-12-11T18:45:19.866Z,99337.16
2022-12-11T18:47:52.134Z,99329.56
2022-12-11T18:50:37.211Z,99341.72
2022-12-11T18:53:24.397Z,99351.16
2022-12-11T18:56:16.569Z,99355.13
2022-12-11T18:58:55.124Z,99359.38
2022-12-11T19:01:26.319Z,99352.94
2022-12-11T19:03:57.603Z,99350.72
2022-12-11T19:06:30.392Z,99365.09
2022-12-11T19:08:57.737Z,99367.75
2022-12-11T19:11:26.955Z,99371.38
2022-12-11T19:13:57.058Z,99370.81
2022-12-11T19:16:46.071Z,99371.78
2022-12-11T19:19:22.564Z,99376.34
2022-12-11T19:21:50.410Z,99375.50
2022-12-11T19:24:20.505Z,99375.91
2022-12-11T19:26:52.229Z,99375.59
2022-12-11T19:29:23.534Z,99376.56
2022-12-11T19:31:50.873Z,99381.59
2022-12-11T19:34:19.130Z,99380.38
2022-12-11T19:36:46.510Z,99380.06
2022-12-11T19:39:14.712Z,99381.41
2022-12-11T19:41:42.101Z,99375.78
2022-12-11T19:44:11.727Z,99375.09
2022-12-11T19:46:38.993Z,99385.63
2022-12-11T19:49:07.246Z,99385.69
2022-12-11T19:51:36.722Z,99383.97
2022-12-11T19:54:03.740Z,99392.91
2022-12-11T19:56:31.204Z,99390.53
2022-12-11T19:58:58.272Z,99391.94
2022-12-11T20:01:31.278Z,99393.94
2022-12-11T20:04:17.525Z,99401.31
2022-12-11T20:06:47.336Z,99387.00
2022-12-11T20:09:14.769Z,99393.72
2022-12-11T20:11:42.704Z,99402.22
2022-12-11T20:14:09.646Z,99384.28
2022-12-11T20:17:09.445Z,99384.03
2022-12-11T20:19:25.023Z,99379.97
2022-12-11T20:21:51.751Z,99375.03
2022-12-11T20:24:18.484Z,99376.19
2022-12-11T20:26:47.341Z,99374.00
2022-12-11T20:29:14.421Z,99376.37
2022-12-11T20:31:41.246Z,99389.34
2022-12-11T20:34:08.681Z,99370.16
2022-12-11T20:36:35.547Z,99383.16
2022-12-11T20:39:02.533Z,99380.62
2022-12-11T20:41:29.593Z,99386.44
2022-12-11T20:43:56.354Z,99389.56
2022-12-11T20:46:26.056Z,99379.28
2022-12-11T20:48:53.855Z,99383.31
2022-12-11T20:51:25.658Z,99378.19
2022-12-11T20:53:58.913Z,99385.59
2022-12-11T20:56:28.021Z,99379.88
2022-12-11T20:58:55.376Z,99372.31
2022-12-11T21:01:23.751Z,99380.28
2022-12-11T21:03:50.958Z,99380.25
2022-12-11T21:06:21.948Z,99382.72
2022-12-11T21:08:50.238Z,99381.88
2022-12-11T21:11:17.185Z,99387.91
2022-12-11T21:13:44.032Z,99391.22
2022-12-11T21:16:11.525Z,99400.66
2022-12-11T21:18:38.713Z,99403.19
2022-12-11T21:21:05.559Z,99397.16
2022-12-11T21:23:32.852Z,99409.38
2022-12-11T21:25:59.823Z,99404.94
2022-12-11T21:28:30.623Z,99406.16
2022-12-11T21:31:01.848Z,99410.19
2022-12-11T21:33:37.846Z,99415.84
2022-12-11T21:36:06.542Z,99423.66
2022-12-11T21:38:34.395Z,99412.19
2022-12-11T21:41:15.949Z,99414.13
2022-12-11T21:44:14.507Z,99413.63
2022-12-11T21:46:31.624Z,99407.25
2022-12-11T21:49:08.848Z,99424.69
2022-12-11T21:51:55.650Z,99414.41
2022-12-11T21:54:22.677Z,99414.13
2022-12-11T21:56:49.577Z,99418.34
2022-12-11T21:59:16.403Z,99419.19
2022-12-11T22:01:46.116Z,99425.88
2022-12-11T22:04:14.071Z,99427.72
2022-12-11T22:06:43.170Z,99433.53
2022-12-11T22:09:10.680Z,99433.34
2022-12-11T22:11:37.444Z,99435.22
2022-12-11T22:14:04.612Z,99432.84
2022-12-11T22:16:31.368Z,99428.34
2022-12-11T22:18:58.349Z,99433.66
2022-12-11T22:21:25.247Z,99430.41
2022-12-11T22:23:51.967Z,99425.22
2022-12-11T22:26:20.309Z,99433.88
2022-12-11T22:28:47.581Z,99436.09
2022-12-11T22:31:17.026Z,99446.97
2022-12-11T22:33:43.836Z,99435.66
2022-12-11T22:36:11.014Z,99451.72
2022-12-11T22:38:39.823Z,99442.69
2022-12-11T22:41:22.709Z,99448.31
2022-12-11T22:43:50.996Z,99443.00
2022-12-11T22:46:18.610Z,99434.78
2022-12-11T22:48:45.551Z,99425.81
2022-12-11T22:51:12.448Z,99417.47
2022-12-11T22:53:40.977Z,99420.06
2022-12-11T22:56:09.095Z,99421.94
2022-12-11T22:58:35.877Z,99409.53
2022-12-11T23:01:13.968Z,99406.53
2022-12-11T23:03:43.202Z,99411.19
2022-12-11T23:06:11.493Z,99407.00
2022-12-11T23:08:45.053Z,99424.78
2022-12-11T23:11:31.759Z,99429.19
2022-12-11T23:13:58.907Z,99440.16
2022-12-11T23:16:27.840Z,99428.13
2022-12-11T23:18:55.445Z,99434.41
2022-12-11T23:21:24.011Z,99426.69
2022-12-11T23:23:50.977Z,99433.91
2022-12-11T23:26:18.934Z,99440.41
2022-12-11T23:28:46.148Z,99438.91
2022-12-11T23:31:13.268Z,99442.13
2022-12-11T23:33:40.072Z,99448.09
2022-12-11T23:36:07.240Z,99451.41
2022-12-11T23:38:34.058Z,99454.50
2022-12-11T23:41:01.296Z,99453.72
2022-12-11T23:43:28.030Z,99464.50
2022-12-11T23:45:54.852Z,99469.78
2022-12-11T23:48:21.566Z,99467.03
2022-12-11T23:50:48.447Z,99465.28
2022-12-11T23:53:18.392Z,99469.94
2022-12-11T23:55:45.431Z,99467.13
2022-12-11T23:58:12.339Z,99473.06
